ENBNENST

Guest
Details From ENBN - Bronnoy
To ENST - Stokka
Flight Number -
Tags Routegen Generated
Created
Modified
Stats Distance 31 nm / 57 km
Max Altitude 100 ft / 30 m
Waypoints 5
Social Downloads 9
Likes 0
Share

Download

Looking for another format? Having issues loading an existing format? Contact us
Advertisement - Login to hide

Notes

Departing runway 3 ENBN. Arriving runway 2 ENST.

Route

ENBN +65.52_+012.33 +65.70_+012.36 +65.89_+012.39 ENST

ID Type Via Altitude (ft/m) Position (lat/lon) Dist (leg/tot) Name
O ENBN APT - 0 / 0 65.46411 / 12.22325 - / 0 nm
+65.52_+012.33 LATLON - 100 / 30 65.52033 / 12.33309 4 / 4 nm
+65.70_+012.36 LATLON - 100 / 30 65.70351 / 12.36143 11 / 15 nm
+65.89_+012.39 LATLON - 100 / 30 65.88670 / 12.38976 11 / 26 nm
O ENST APT - 0 / 0 65.95243 / 12.46396 4 / 30 nm

Altitude Profile

Advertisement - Login to hide

ENBN

Details ICAO ENBN (BNN)
Name Bronnoysund
Region Norway
Timezone Unknown
Stats Elevation 24 ft / 7 m (AMSL)
Location 65.459100° 12.213500°
Runways 1
Magnetic Variation 5.082° E

METAR

ENBN 161850Z 08009KT 040V120 9999 -RA FEW030 SCT040 BKN065 12/08 Q1017

Decode

TAF

Not found

Departure Runways

ID Width Length Bearing (true/mag) Surface Threshold Overrun Markings Lighting
04 100 ft / 30 m 4,702 ft / 1,433 m 38.93° / 33.85° ASPHALT 387 ft / 118 m 0 ft / 0 m APP EDGE THRESHOLD MALS
22 100 ft / 30 m 4,702 ft / 1,433 m 218.95° / 213.87° ASPHALT 387 ft / 118 m 0 ft / 0 m APP EDGE THRESHOLD MALS

ENST

Details ICAO ENST (SSJ)
Name Sandnessjoen-Stokka
Region Norway
Timezone Europe/Oslo (UTC+2.0)
Stats Elevation 55 ft / 17 m (AMSL)
Location 65.958200° 12.470500°
Runways 1
Magnetic Variation 5.285° E

METAR

ENST 161850Z VRB01KT 9999 FEW040 BKN075 09/07 Q1018 RMK WIND 300FT 11008KT

Decode

TAF

Not found

Destination Runways

ID Width Length Bearing (true/mag) Surface Threshold Overrun Markings Lighting
02 98 ft / 30 m 4,627 ft / 1,410 m 24.48° / 19.19° ASPHALT 174 ft / 53 m 0 ft / 0 m PREC-APP CENTERLINE EDGE THRESHOLD CALVERT TDZ REIL-OMNI
20 98 ft / 30 m 4,627 ft / 1,410 m 204.49° / 199.20° ASPHALT 217 ft / 66 m 0 ft / 0 m PREC-APP CENTERLINE EDGE THRESHOLD CALVERT TDZ REIL-OMNI

Approach Navaids

Runway Type Ident Frequency Range Bearing (true/mag) Slope Elevation
20 LOC-LOC ST 109.90 MHz 18 nm / 33 km 196.49° / 191.20 ° - 55 ft / 17 m (AMSL)

Popular Alternatives